Climatologie pour Saint-Brevin les Pins
Jour • Résumé pour janvier 16, 2017 Système :  Métrique    Anglais   Mixte
« - 1 jour
+ 1 jour »
Jour Semaine Mois Année Personnalisé
  Maximum : Minimum : Moyenne :
Température sous abri : 10.8 °C 4.9 °C 9 °C
Point de rosée : 10.2 °C 4.4 °C 8.3 °C
Humidité : 98 % 90 % 96 %
Vitesse du vent : 17.7 km/h 0.0 km/h 5.7 km/h
Rafale : 29.0 km/h - -
Direction :- - WSW
Pression : 1028.7 hPa 1024.6 hPa -
Précipitations : 2.3 mm    
Historical Graphs
 
 
Tableau de données pour janvier 16, 2017
Heure Tempé Pt rosée Pression Vent Vitesse Rafale Humidité Taux pluie (/hr) Soleil
00:00 9.1 °C 7.9 °C 1024.9 hPa NNW 4.8 km/h 17.7 km/h 92 % 0.0 mm 0 W/m2
00:05 9.1 °C 7.7 °C 1024.9 hPa NNW 3.2 km/h 22.5 km/h 91 % 0.0 mm 0 W/m2
00:10 9.1 °C 7.7 °C 1024.9 hPa NNW 12.9 km/h 29.0 km/h 91 % 0.0 mm 0 W/m2
00:15 9.1 °C 7.7 °C 1024.9 hPa NNW 9.7 km/h 29.0 km/h 91 % 0.0 mm 0 W/m2
00:20 8.9 °C 7.5 °C 1024.6 hPa NNW 11.3 km/h 25.7 km/h 91 % 0.0 mm 0 W/m2
00:25 9.0 °C 7.6 °C 1024.9 hPa North 16.1 km/h 27.4 km/h 91 % 0.0 mm 0 W/m2
00:30 9.2 °C 7.8 °C 1024.9 hPa North 16.1 km/h 27.4 km/h 91 % 0.0 mm 0 W/m2
00:35 9.2 °C 7.7 °C 1024.9 hPa NW 9.7 km/h 24.1 km/h 90 % 0.0 mm 0 W/m2
00:40 9.1 °C 7.5 °C 1024.9 hPa NNW 4.8 km/h 24.1 km/h 90 % 0.0 mm 0 W/m2
00:45 8.9 °C 7.3 °C 1024.9 hPa NNW 16.1 km/h 24.1 km/h 90 % 0.0 mm 0 W/m2
00:50 8.9 °C 7.3 °C 1024.9 hPa NW 11.3 km/h 25.7 km/h 90 % 0.0 mm 0 W/m2
00:55 8.8 °C 7.3 °C 1024.9 hPa NNW 6.4 km/h 25.7 km/h 90 % 0.0 mm 0 W/m2
01:00 8.9 °C 7.4 °C 1024.9 hPa North 12.9 km/h 25.7 km/h 90 % 0.0 mm 0 W/m2
01:05 8.9 °C 7.4 °C 1024.9 hPa NNW 8.0 km/h 25.7 km/h 90 % 0.0 mm 0 W/m2
01:10 8.9 °C 7.4 °C 1024.6 hPa North 17.7 km/h 22.5 km/h 90 % 0.0 mm 0 W/m2
01:20 9.0 °C 7.4 °C 1024.9 hPa North 12.9 km/h 22.5 km/h 90 % 0.0 mm 0 W/m2
01:25 9.1 °C 7.5 °C 1024.9 hPa North 6.4 km/h 25.7 km/h 90 % 0.0 mm 0 W/m2
01:30 9.1 °C 7.5 °C 1024.9 hPa North 12.9 km/h 25.7 km/h 90 % 0.0 mm 0 W/m2
01:35 9.1 °C 7.6 °C 1024.9 hPa NNW 6.4 km/h 22.5 km/h 90 % 0.0 mm 0 W/m2
01:40 9.0 °C 7.4 °C 1024.9 hPa NNW 11.3 km/h 22.5 km/h 90 % 0.0 mm 0 W/m2
01:45 8.9 °C 7.4 °C 1024.9 hPa NNW 6.4 km/h 20.9 km/h 90 % 0.0 mm 0 W/m2
01:50 8.8 °C 7.2 °C 1024.9 hPa NW 8.0 km/h 19.3 km/h 90 % 0.0 mm 0 W/m2
01:55 8.6 °C 7.2 °C 1024.9 hPa NE 11.3 km/h 22.5 km/h 91 % 0.0 mm 0 W/m2
02:00 8.6 °C 7.2 °C 1024.9 hPa NW 3.2 km/h 22.5 km/h 91 % 0.0 mm 0 W/m2
02:05 8.5 °C 7.1 °C 1024.9 hPa North 8.0 km/h 22.5 km/h 91 % 0.0 mm 0 W/m2
02:10 8.3 °C 7.1 °C 1024.9 hPa NNW 9.7 km/h 17.7 km/h 92 % 0.0 mm 0 W/m2
02:15 8.3 °C 7.1 °C 1024.9 hPa NNW 8.0 km/h 17.7 km/h 92 % 0.0 mm 0 W/m2
02:20 8.3 °C 7.1 °C 1024.9 hPa NW 4.8 km/h 17.7 km/h 92 % 0.0 mm 0 W/m2
02:25 8.3 °C 7.2 °C 1024.9 hPa North 8.0 km/h 17.7 km/h 93 % 0.0 mm 0 W/m2
02:30 8.3 °C 7.1 °C 1024.9 hPa NNW 8.0 km/h 17.7 km/h 92 % 0.0 mm 0 W/m2
02:35 8.2 °C 7.1 °C 1024.9 hPa North 3.2 km/h 17.7 km/h 93 % 0.0 mm 0 W/m2
02:40 8.2 °C 7.1 °C 1024.9 hPa North 11.3 km/h 16.1 km/h 93 % 0.0 mm 0 W/m2
02:45 8.2 °C 7.2 °C 1024.6 hPa NNW 9.7 km/h 17.7 km/h 93 % 0.0 mm 0 W/m2
02:50 8.4 °C 7.3 °C 1024.9 hPa NNW 6.4 km/h 19.3 km/h 93 % 0.0 mm 0 W/m2
02:55 8.5 °C 7.4 °C 1024.9 hPa North 6.4 km/h 19.3 km/h 93 % 0.0 mm 0 W/m2
03:00 8.6 °C 7.5 °C 1024.9 hPa North 14.5 km/h 19.3 km/h 93 % 0.0 mm 0 W/m2
03:05 8.6 °C 7.5 °C 1024.9 hPa North 4.8 km/h 20.9 km/h 93 % 0.0 mm 0 W/m2
03:10 8.7 °C 7.7 °C 1024.9 hPa NNW 12.9 km/h 20.9 km/h 93 % 0.0 mm 0 W/m2
03:15 8.8 °C 7.7 °C 1024.9 hPa North 12.9 km/h 22.5 km/h 93 % 0.0 mm 0 W/m2
03:20 8.8 °C 7.8 °C 1024.9 hPa NNE 8.0 km/h 22.5 km/h 93 % 0.0 mm 0 W/m2
03:25 8.8 °C 7.8 °C 1024.9 hPa NW 8.0 km/h 17.7 km/h 93 % 0.0 mm 0 W/m2
03:30 8.8 °C 7.8 °C 1024.9 hPa NNW 4.8 km/h 20.9 km/h 93 % 0.0 mm 0 W/m2
03:35 8.9 °C 7.8 °C 1024.9 hPa NW 4.8 km/h 20.9 km/h 93 % 0.0 mm 0 W/m2
03:40 8.9 °C 7.9 °C 1024.9 hPa NNW 14.5 km/h 17.7 km/h 93 % 0.0 mm 0 W/m2
03:45 8.9 °C 7.9 °C 1024.9 hPa NNW 11.3 km/h 17.7 km/h 93 % 0.0 mm 0 W/m2
03:50 8.8 °C 7.8 °C 1024.9 hPa North 14.5 km/h 20.9 km/h 93 % 0.0 mm 0 W/m2
03:55 8.9 °C 7.8 °C 1024.9 hPa North 8.0 km/h 20.9 km/h 93 % 0.0 mm 0 W/m2
04:00 8.9 °C 7.9 °C 1024.9 hPa NNW 4.8 km/h 17.7 km/h 93 % 0.0 mm 0 W/m2
04:05 8.9 °C 7.9 °C 1024.6 hPa North 9.7 km/h 16.1 km/h 93 % 0.0 mm 0 W/m2
04:10 8.9 °C 7.8 °C 1024.6 hPa NNW 4.8 km/h 16.1 km/h 93 % 0.0 mm 0 W/m2
04:15 8.9 °C 7.8 °C 1024.6 hPa North 11.3 km/h 17.7 km/h 93 % 0.0 mm 0 W/m2
04:20 8.9 °C 7.8 °C 1024.6 hPa NNW 6.4 km/h 17.7 km/h 93 % 0.0 mm 0 W/m2
04:25 8.8 °C 7.7 °C 1024.6 hPa NNW 3.2 km/h 17.7 km/h 93 % 0.0 mm 0 W/m2
04:30 8.7 °C 7.8 °C 1024.9 hPa NNW 1.6 km/h 17.7 km/h 94 % 0.0 mm 0 W/m2
04:35 8.7 °C 7.8 °C 1024.9 hPa North 9.7 km/h 17.7 km/h 94 % 0.0 mm 0 W/m2
04:40 8.7 °C 7.8 °C 1024.6 hPa North 4.8 km/h 17.7 km/h 94 % 0.0 mm 0 W/m2
04:45 8.7 °C 7.8 °C 1024.6 hPa NNW 8.0 km/h 17.7 km/h 94 % 0.0 mm 0 W/m2
04:50 8.6 °C 7.9 °C 1024.6 hPa NW 9.7 km/h 16.1 km/h 95 % 0.0 mm 0 W/m2
04:55 8.5 °C 7.7 °C 1024.6 hPa NNW 9.7 km/h 16.1 km/h 95 % 0.0 mm 0 W/m2
05:00 8.4 °C 7.6 °C 1024.6 hPa NNW 1.6 km/h 14.5 km/h 95 % 0.0 mm 0 W/m2
05:05 8.2 °C 7.4 °C 1024.6 hPa NNW 4.8 km/h 16.1 km/h 95 % 0.0 mm 0 W/m2
05:10 8.1 °C 7.3 °C 1024.6 hPa NNW 9.7 km/h 16.1 km/h 95 % 0.0 mm 0 W/m2
05:15 8.0 °C 7.2 °C 1024.6 hPa North 4.8 km/h 14.5 km/h 95 % 0.0 mm 0 W/m2
05:20 7.9 °C 7.1 °C 1024.6 hPa NNW 14.5 km/h 14.5 km/h 95 % 0.0 mm 0 W/m2
05:25 7.8 °C 7.2 °C 1024.6 hPa NNW 4.8 km/h 17.7 km/h 96 % 0.0 mm 0 W/m2
05:30 7.8 °C 7.2 °C 1024.6 hPa NNE 4.8 km/h 17.7 km/h 96 % 0.0 mm 0 W/m2
05:35 7.9 °C 7.3 °C 1024.9 hPa NNW 9.7 km/h 20.9 km/h 96 % 0.0 mm 0 W/m2
05:40 7.9 °C 7.3 °C 1024.9 hPa NNW 8.0 km/h 20.9 km/h 96 % 0.0 mm 0 W/m2
05:50 7.8 °C 7.2 °C 1024.6 hPa NNW 3.2 km/h 17.7 km/h 96 % 0.0 mm 0 W/m2
05:55 7.8 °C 7.2 °C 1024.6 hPa North 9.7 km/h 17.7 km/h 96 % 0.0 mm 0 W/m2
06:00 8.0 °C 7.4 °C 1024.6 hPa NNW 3.2 km/h 17.7 km/h 96 % 0.0 mm 0 W/m2
06:05 8.1 °C 7.6 °C 1024.6 hPa NNW 8.0 km/h 17.7 km/h 97 % 0.0 mm 0 W/m2
06:10 8.2 °C 7.8 °C 1024.6 hPa NNW 3.2 km/h 16.1 km/h 97 % 0.0 mm 0 W/m2
06:15 8.3 °C 7.8 °C 1024.6 hPa NNW 8.0 km/h 19.3 km/h 97 % 0.0 mm 0 W/m2
06:20 8.3 °C 7.9 °C 1024.6 hPa NW 3.2 km/h 19.3 km/h 97 % 0.0 mm 0 W/m2
06:25 8.4 °C 7.9 °C 1024.6 hPa NNW 4.8 km/h 16.1 km/h 97 % 0.0 mm 0 W/m2
06:30 8.4 °C 7.9 °C 1024.6 hPa NNW 6.4 km/h 17.7 km/h 97 % 0.0 mm 0 W/m2
06:35 8.4 °C 8.0 °C 1024.6 hPa NNW 4.8 km/h 17.7 km/h 97 % 0.0 mm 0 W/m2
06:40 8.4 °C 8.0 °C 1024.9 hPa NNW 8.0 km/h 16.1 km/h 97 % 0.0 mm 0 W/m2
06:45 8.5 °C 8.1 °C 1024.9 hPa NW 4.8 km/h 14.5 km/h 97 % 0.0 mm 0 W/m2
06:50 8.5 °C 8.1 °C 1024.9 hPa North 4.8 km/h 14.5 km/h 97 % 0.0 mm 0 W/m2
06:55 8.5 °C 8.1 °C 1024.9 hPa North 9.7 km/h 11.3 km/h 97 % 0.0 mm 0 W/m2
07:00 8.6 °C 8.1 °C 1024.9 hPa North 12.9 km/h 16.1 km/h 97 % 0.0 mm 0 W/m2
07:05 8.6 °C 8.1 °C 1024.9 hPa NNW 3.2 km/h 16.1 km/h 97 % 0.0 mm 0 W/m2
07:10 8.6 °C 8.1 °C 1025.3 hPa North 8.0 km/h 14.5 km/h 97 % 0.0 mm 0 W/m2
07:15 8.7 °C 8.2 °C 1025.3 hPa North 14.5 km/h 14.5 km/h 97 % 0.0 mm 0 W/m2
07:20 8.8 °C 8.3 °C 1025.3 hPa NNW 8.0 km/h 14.5 km/h 97 % 0.0 mm 0 W/m2
07:25 8.8 °C 8.3 °C 1025.3 hPa NNW 3.2 km/h 14.5 km/h 97 % 0.0 mm 0 W/m2
07:30 8.8 °C 8.3 °C 1025.3 hPa North 9.7 km/h 16.1 km/h 97 % 0.0 mm 0 W/m2
07:35 8.8 °C 8.4 °C 1025.3 hPa NW 3.2 km/h 16.1 km/h 97 % 0.0 mm 0 W/m2
07:40 8.8 °C 8.4 °C 1025.3 hPa NNW 3.2 km/h 19.3 km/h 97 % 0.0 mm 0 W/m2
07:45 8.8 °C 8.4 °C 1025.3 hPa North 3.2 km/h 19.3 km/h 97 % 0.0 mm 0 W/m2
07:50 8.9 °C 8.4 °C 1025.3 hPa North 9.7 km/h 16.1 km/h 97 % 0.0 mm 0 W/m2
07:55 8.9 °C 8.5 °C 1025.3 hPa North 3.2 km/h 19.3 km/h 97 % 0.0 mm 0 W/m2
08:05 9.0 °C 8.5 °C 1025.3 hPa NNW 1.6 km/h 12.9 km/h 97 % 0.0 mm 0 W/m2
08:10 8.9 °C 8.5 °C 1025.3 hPa NNW 3.2 km/h 12.9 km/h 97 % 0.0 mm 0 W/m2
08:15 8.9 °C 8.5 °C 1025.3 hPa NNW 9.7 km/h 12.9 km/h 97 % 0.0 mm 0 W/m2
08:20 8.9 °C 8.5 °C 1025.6 hPa NNW 9.7 km/h 12.9 km/h 97 % 0.0 mm 0 W/m2
08:25 8.9 °C 8.5 °C 1025.6 hPa North 11.3 km/h 16.1 km/h 97 % 0.0 mm 0 W/m2
08:35 8.9 °C 8.5 °C 1025.6 hPa NNW 3.2 km/h 14.5 km/h 97 % 0.3 mm 0 W/m2
08:40 8.9 °C 8.5 °C 1025.6 hPa North 6.4 km/h 14.5 km/h 97 % 0.3 mm 0 W/m2
08:45 8.9 °C 8.5 °C 1025.6 hPa Calm   9.7 km/h 97 % 0.3 mm 0 W/m2
08:50 8.9 °C 8.5 °C 1026.0 hPa North 8.0 km/h 12.9 km/h 97 % 0.3 mm 0 W/m2
08:55 9.0 °C 8.7 °C 1026.0 hPa North 4.8 km/h 12.9 km/h 98 % 0.3 mm 0 W/m2
09:00 9.0 °C 8.7 °C 1026.0 hPa North 3.2 km/h 12.9 km/h 98 % 0.3 mm 0 W/m2
09:05 9.0 °C 8.7 °C 1026.0 hPa North 3.2 km/h 12.9 km/h 98 % 0.3 mm 0 W/m2
09:10 9.0 °C 8.7 °C 1026.0 hPa North 6.4 km/h 14.5 km/h 98 % 0.5 mm 0 W/m2
09:15 9.1 °C 8.8 °C 1026.0 hPa North 8.0 km/h 14.5 km/h 98 % 0.5 mm 7 W/m2
09:20 9.1 °C 8.8 °C 1026.0 hPa NW 3.2 km/h 14.5 km/h 98 % 0.5 mm 12 W/m2
09:25 9.1 °C 8.8 °C 1026.0 hPa North 1.6 km/h 14.5 km/h 98 % 0.5 mm 23 W/m2
09:30 9.2 °C 8.9 °C 1026.0 hPa NW 4.8 km/h 9.7 km/h 98 % 0.5 mm 23 W/m2
09:35 9.2 °C 8.9 °C 1026.0 hPa North 8.0 km/h 14.5 km/h 98 % 0.3 mm 35 W/m2
09:40 9.3 °C 9.0 °C 1026.0 hPa NW 3.2 km/h 14.5 km/h 98 % 0.3 mm 53 W/m2
09:45 9.3 °C 9.0 °C 1026.3 hPa NW 4.8 km/h 9.7 km/h 98 % 0.3 mm 32 W/m2
09:50 9.4 °C 9.1 °C 1026.3 hPa Calm   8.0 km/h 98 % 0.3 mm 26 W/m2
09:55 9.3 °C 9.0 °C 1026.3 hPa NNW 4.8 km/h 11.3 km/h 98 % 0.3 mm 18 W/m2
10:00 9.3 °C 9.0 °C 1026.3 hPa North 9.7 km/h 11.3 km/h 98 % 0.3 mm 18 W/m2
10:05 9.3 °C 9.0 °C 1026.3 hPa NNW 3.2 km/h 12.9 km/h 98 % 0.0 mm 18 W/m2
10:10 9.3 °C 9.0 °C 1026.3 hPa Calm   12.9 km/h 98 % 0.0 mm 33 W/m2
10:15 9.4 °C 9.1 °C 1026.3 hPa NW 4.8 km/h 8.0 km/h 98 % 0.0 mm 35 W/m2
10:20 9.4 °C 9.1 °C 1026.3 hPa North 4.8 km/h 9.7 km/h 98 % 0.0 mm 51 W/m2
10:25 9.5 °C 9.2 °C 1026.3 hPa North 4.8 km/h 9.7 km/h 98 % 0.0 mm 49 W/m2
10:30 9.6 °C 9.3 °C 1026.3 hPa NNW 4.8 km/h 11.3 km/h 98 % 0.0 mm 69 W/m2
10:35 9.7 °C 9.4 °C 1026.3 hPa NNE 3.2 km/h 11.3 km/h 98 % 0.0 mm 83 W/m2
10:40 9.7 °C 9.4 °C 1026.3 hPa North 1.6 km/h 9.7 km/h 98 % 0.0 mm 58 W/m2
10:45 9.7 °C 9.4 °C 1026.3 hPa North 3.2 km/h 12.9 km/h 98 % 0.0 mm 65 W/m2
10:50 9.7 °C 9.4 °C 1026.3 hPa North 1.6 km/h 12.9 km/h 98 % 0.0 mm 70 W/m2
10:55 9.7 °C 9.4 °C 1026.3 hPa Calm   11.3 km/h 98 % 0.0 mm 56 W/m2
11:05 9.8 °C 9.5 °C 1026.6 hPa NNW 3.2 km/h 12.9 km/h 98 % 0.3 mm 91 W/m2
11:10 9.8 °C 9.5 °C 1026.6 hPa NNW 9.7 km/h 16.1 km/h 98 % 0.3 mm 91 W/m2
11:15 9.8 °C 9.5 °C 1026.6 hPa NNW 6.4 km/h 16.1 km/h 98 % 0.3 mm 104 W/m2
11:20 9.9 °C 9.6 °C 1026.6 hPa North 11.3 km/h 12.9 km/h 98 % 0.3 mm 113 W/m2
11:25 9.9 °C 9.6 °C 1026.6 hPa North 1.6 km/h 12.9 km/h 98 % 0.3 mm 134 W/m2
11:30 10.2 °C 9.9 °C 1026.6 hPa North 4.8 km/h 12.9 km/h 98 % 0.3 mm 199 W/m2
11:35 10.3 °C 10.0 °C 1026.6 hPa NW 3.2 km/h 14.5 km/h 98 % 0.3 mm 123 W/m2
11:40 10.2 °C 9.9 °C 1026.6 hPa NNW 4.8 km/h 14.5 km/h 98 % 0.3 mm 130 W/m2
11:50 10.2 °C 9.9 °C 1026.6 hPa North 3.2 km/h 14.5 km/h 98 % 0.3 mm 128 W/m2
11:55 10.3 °C 10.0 °C 1026.6 hPa North 11.3 km/h 14.5 km/h 98 % 0.3 mm 149 W/m2
12:00 10.3 °C 10.0 °C 1026.6 hPa NNE 1.6 km/h 12.9 km/h 98 % 0.3 mm 137 W/m2
12:05 10.5 °C 10.2 °C 1026.6 hPa NNW 1.6 km/h 12.9 km/h 98 % 0.0 mm 134 W/m2
12:10 10.5 °C 10.2 °C 1026.6 hPa NNW 4.8 km/h 12.9 km/h 98 % 0.0 mm 118 W/m2
12:15 10.4 °C 9.9 °C 1026.3 hPa North 4.8 km/h 12.9 km/h 97 % 0.0 mm 116 W/m2
12:20 10.6 °C 10.1 °C 1026.3 hPa North 3.2 km/h 12.9 km/h 97 % 0.0 mm 121 W/m2
12:25 10.6 °C 10.1 °C 1026.3 hPa North 8.0 km/h 11.3 km/h 97 % 0.0 mm 132 W/m2
12:30 10.5 °C 10.0 °C 1026.3 hPa North 3.2 km/h 12.9 km/h 97 % 0.0 mm 100 W/m2
12:35 10.4 °C 9.8 °C 1026.3 hPa NE 1.6 km/h 12.9 km/h 96 % 0.0 mm 139 W/m2
12:40 10.5 °C 9.9 °C 1026.3 hPa Calm   12.9 km/h 96 % 0.0 mm 141 W/m2
12:45 10.6 °C 9.9 °C 1026.3 hPa NNW 3.2 km/h 14.5 km/h 96 % 0.0 mm 109 W/m2
12:50 10.7 °C 10.1 °C 1026.3 hPa NNE 3.2 km/h 14.5 km/h 96 % 0.0 mm 118 W/m2
12:55 10.8 °C 10.2 °C 1026.3 hPa NNE 4.8 km/h 11.3 km/h 96 % 0.0 mm 183 W/m2
13:00 10.7 °C 9.9 °C 1026.0 hPa North 9.7 km/h 14.5 km/h 95 % 0.0 mm 134 W/m2
13:05 10.8 °C 10.0 °C 1026.0 hPa NNE 12.9 km/h 16.1 km/h 95 % 0.0 mm 176 W/m2
13:10 10.6 °C 9.7 °C 1026.0 hPa North 3.2 km/h 16.1 km/h 94 % 0.0 mm 128 W/m2
13:20 10.3 °C 9.5 °C 1026.0 hPa NNE 6.4 km/h 12.9 km/h 95 % 0.0 mm 197 W/m2
13:25 10.4 °C 9.7 °C 1026.0 hPa NNE 6.4 km/h 12.9 km/h 95 % 0.0 mm 188 W/m2
13:30 10.6 °C 10.0 °C 1025.6 hPa NNW 6.4 km/h 9.7 km/h 96 % 0.0 mm 130 W/m2
13:35 10.6 °C 9.8 °C 1025.6 hPa NNE 8.0 km/h 9.7 km/h 95 % 0.0 mm 83 W/m2
13:40 10.3 °C 9.6 °C 1025.6 hPa NNE 3.2 km/h 9.7 km/h 95 % 0.0 mm 72 W/m2
13:45 10.3 °C 9.5 °C 1025.6 hPa North 4.8 km/h 11.3 km/h 95 % 0.0 mm 144 W/m2
13:50 10.3 °C 9.5 °C 1025.6 hPa North 3.2 km/h 11.3 km/h 95 % 0.0 mm 88 W/m2
13:55 10.3 °C 9.6 °C 1025.6 hPa ENE 6.4 km/h 12.9 km/h 95 % 0.0 mm 67 W/m2
14:00 10.2 °C 9.5 °C 1025.6 hPa North 6.4 km/h 12.9 km/h 95 % 0.0 mm 109 W/m2
14:05 10.3 °C 9.7 °C 1025.6 hPa Calm   9.7 km/h 96 % 0.0 mm 113 W/m2
14:10 10.4 °C 9.8 °C 1025.6 hPa Calm   8.0 km/h 96 % 0.0 mm 88 W/m2
14:15 10.4 °C 9.8 °C 1025.6 hPa Calm   8.0 km/h 96 % 0.0 mm 116 W/m2
14:20 10.4 °C 9.8 °C 1025.3 hPa North 3.2 km/h 8.0 km/h 96 % 0.0 mm 95 W/m2
14:25 10.3 °C 9.7 °C 1025.3 hPa NE 4.8 km/h 8.0 km/h 96 % 0.0 mm 98 W/m2
14:30 10.2 °C 9.6 °C 1025.3 hPa NNW 3.2 km/h 9.7 km/h 96 % 0.0 mm 79 W/m2
14:35 10.3 °C 9.7 °C 1025.3 hPa Calm   9.7 km/h 96 % 0.0 mm 100 W/m2
14:40 10.3 °C 9.7 °C 1025.3 hPa Calm   9.7 km/h 96 % 0.0 mm 65 W/m2
14:45 10.3 °C 9.7 °C 1025.3 hPa North 4.8 km/h 8.0 km/h 96 % 0.0 mm 58 W/m2
14:50 10.2 °C 9.6 °C 1025.3 hPa NNE 3.2 km/h 6.4 km/h 96 % 0.0 mm 83 W/m2
14:55 10.3 °C 9.7 °C 1024.9 hPa NE 1.6 km/h 6.4 km/h 96 % 0.0 mm 86 W/m2
15:00 10.2 °C 9.6 °C 1024.9 hPa NE 1.6 km/h 6.4 km/h 96 % 0.0 mm 63 W/m2
15:05 10.2 °C 9.6 °C 1024.9 hPa Calm   4.8 km/h 96 % 0.0 mm 70 W/m2
15:10 10.2 °C 9.6 °C 1025.3 hPa NNE 1.6 km/h 4.8 km/h 96 % 0.3 mm 60 W/m2
15:15 10.2 °C 9.6 °C 1024.9 hPa NNE 3.2 km/h 6.4 km/h 96 % 0.3 mm 62 W/m2
15:20 10.1 °C 9.7 °C 1024.9 hPa Calm   6.4 km/h 97 % 0.3 mm 62 W/m2
15:25 10.1 °C 9.7 °C 1024.9 hPa Calm   6.4 km/h 97 % 0.3 mm 74 W/m2
15:30 10.2 °C 9.8 °C 1024.9 hPa Calm   6.4 km/h 97 % 0.3 mm 53 W/m2
15:35 10.2 °C 9.7 °C 1024.9 hPa Calm   4.8 km/h 97 % 0.3 mm 46 W/m2
15:40 10.2 °C 9.7 °C 1024.9 hPa Calm   4.8 km/h 97 % 0.3 mm 65 W/m2
15:45 10.2 °C 9.8 °C 1024.9 hPa NNW 1.6 km/h 8.0 km/h 97 % 0.3 mm 47 W/m2
15:50 10.2 °C 9.8 °C 1024.9 hPa Calm   8.0 km/h 97 % 0.5 mm 35 W/m2
15:55 10.1 °C 9.7 °C 1024.9 hPa NNE 8.0 km/h 9.7 km/h 97 % 0.5 mm 40 W/m2
16:00 10.1 °C 9.7 °C 1024.9 hPa Calm   9.7 km/h 97 % 0.5 mm 42 W/m2
16:05 10.1 °C 9.7 °C 1024.9 hPa North 6.4 km/h 6.4 km/h 97 % 0.5 mm 37 W/m2
16:10 10.1 °C 9.7 °C 1024.9 hPa Calm   6.4 km/h 97 % 0.5 mm 33 W/m2
16:20 10.1 °C 9.7 °C 1024.9 hPa NNE 3.2 km/h 11.3 km/h 97 % 0.5 mm 39 W/m2
16:25 10.1 °C 9.7 °C 1024.9 hPa NNE 6.4 km/h 9.7 km/h 97 % 0.5 mm 33 W/m2
16:30 10.1 °C 9.7 °C 1024.9 hPa Calm   11.3 km/h 97 % 0.5 mm 32 W/m2
16:35 10.1 °C 9.7 °C 1024.9 hPa North 1.6 km/h 11.3 km/h 97 % 0.5 mm 21 W/m2
16:40 10.1 °C 9.7 °C 1024.9 hPa North 6.4 km/h 9.7 km/h 97 % 0.5 mm 16 W/m2
16:45 10.1 °C 9.6 °C 1024.9 hPa NNE 1.6 km/h 9.7 km/h 97 % 0.5 mm 11 W/m2
16:50 10.1 °C 9.6 °C 1024.9 hPa North 4.8 km/h 8.0 km/h 97 % 0.3 mm 9 W/m2
16:55 10.1 °C 9.6 °C 1024.9 hPa NNW 3.2 km/h 8.0 km/h 97 % 0.3 mm 11 W/m2
17:06 10.0 °C 9.7 °C 1024.9 hPa NNW 6.4 km/h 11.3 km/h 98 % 0.3 mm 9 W/m2
18:00 9.8 °C 9.5 °C 1024.9 hPa ENE 1.6 km/h 9.7 km/h 98 % 0.5 mm 0 W/m2
20:05 7.4 °C 6.9 °C 1026.6 hPa Calm   11.3 km/h 97 % 0.0 mm 0 W/m2
22:35 5.7 °C 5.2 °C 1028.0 hPa East 8.0 km/h 16.1 km/h 97 % 0.0 mm 0 W/m2
22:40 5.6 °C 5.2 °C 1028.0 hPa Calm   16.1 km/h 97 % 0.0 mm 0 W/m2
22:45 5.6 °C 5.1 °C 1028.0 hPa ESE 8.0 km/h 9.7 km/h 97 % 0.0 mm 0 W/m2
22:50 5.6 °C 5.1 °C 1028.0 hPa ESE 6.4 km/h 11.3 km/h 97 % 0.0 mm 0 W/m2
22:55 5.5 °C 5.1 °C 1028.3 hPa East 4.8 km/h 11.3 km/h 97 % 0.0 mm 0 W/m2
23:00 5.4 °C 5.0 °C 1028.3 hPa Calm   14.5 km/h 97 % 0.0 mm 0 W/m2
23:05 5.4 °C 5.0 °C 1028.3 hPa East 1.6 km/h 14.5 km/h 97 % 0.0 mm 0 W/m2
23:10 5.4 °C 5.0 °C 1028.3 hPa East 6.4 km/h 9.7 km/h 97 % 0.0 mm 0 W/m2
23:15 5.3 °C 4.7 °C 1028.3 hPa ESE 1.6 km/h 9.7 km/h 96 % 0.0 mm 0 W/m2
23:20 5.3 °C 4.7 °C 1028.3 hPa ENE 3.2 km/h 9.7 km/h 96 % 0.0 mm 0 W/m2
23:25 5.3 °C 4.8 °C 1028.3 hPa ENE 1.6 km/h 4.8 km/h 97 % 0.0 mm 0 W/m2
23:30 5.3 °C 4.7 °C 1028.3 hPa East 3.2 km/h 6.4 km/h 96 % 0.0 mm 0 W/m2
23:35 5.3 °C 4.7 °C 1028.7 hPa ENE 3.2 km/h 8.0 km/h 96 % 0.0 mm 0 W/m2
23:40 5.2 °C 4.6 °C 1028.7 hPa NE 1.6 km/h 8.0 km/h 96 % 0.0 mm 0 W/m2
23:45 5.2 °C 4.8 °C 1028.7 hPa East 8.0 km/h 12.9 km/h 97 % 0.0 mm 0 W/m2
23:50 5.1 °C 4.5 °C 1028.7 hPa East 4.8 km/h 17.7 km/h 96 % 0.0 mm 0 W/m2
23:55 4.9 °C 4.4 °C 1028.7 hPa East 4.8 km/h 17.7 km/h 96 % 0.0 mm 0 W/m2
Avec l'autorisation de Weather Underground - 1.5 mb